Ruby Valley, Nevada
Current Conditions -  °F | °C
As of 10:56 PM on Thursday 18 Dec 2014 (Local Time) from KEKO Reporting Station
Broken Clouds Broken Clouds  
Wind Chill: 26°   Ceiling: 9000
Heat Index: 26°   Visibility: 10mi
Dew Point: 23°   Wind: 0mph
Humidity: 88%   Direction: NA
Pressure: 30.15"   Gusts: NA
Location:  40.5°N, 115.35°W
Report Text: KEKO 190656Z AUTO 00000KT 10SM BKN090 M03/M05 A3015 RMK AO2 SLP232 I1001 T10331050
Loading
Personal Weather Stations






























Interactive Weather Map New forecast layout! Learn more

10-Day Weather Forecast

Advertisements
Track Severe Weather on mobile